Terminal Aerodrome Forecast
Issued by NWS

Home | Current Version | Previous Version | Text Only | Print | Product List | Glossary On
Versions: 1 2 3 4 5 6 7 8 9 10 11 12 13 14 15 16
000
FTUS41 KCAR 222300
TAFPQI
TAF
KPQI 222331Z 2300/2324 27015G25KT P6SM SCT025 BKN040
      TEMPO 2300/2302 BKN025
     FM230200 27010G20KT P6SM SCT025 BKN050
     FM231300 28012G22KT P6SM SCT120
     FM231700 27012G20KT P6SM SCT025 BKN040
      AMD LTD TO CLD VIS AND WIND=

USA.gov is the U.S. government's official web portal to all federal, state and local government web resources and services.